Berga II — 7TQI — position and weather

sailwx.info

Track history (hours):
 
Tides and Currents Weather Stations Pressure Air Temp Water Temp Dewpoint Dewpoint Depression Visibility Wind Speed Wind Dir Waves Ship Positions

Berga II

Last reported at 2018-Jan-10 11:30 UTC. Time now 2018-Jan-18 19:50 UTC.
Position N 40°38' E 014°01'.
Warning: this ship's position is 8 days out of date.

Length 174 m; draft 7.8 m.

Type: Ship (hazmat cat B). MMSI: 605076051.

Date/timePositionNaut miles runAvg speedWind from/ knotsBaromVisibWave heightAir tempDewpointWater temp
2018-Jan-10 11:30N 40°38' E 014°01'815.5
2018-Jan-10 11:00N 40°42' E 014°09'714.2
2018-Jan-10 10:30N 40°46' E 014°16'3 4.1
2018-Jan-10 09:51N 40°48' E 014°19'0 0.1
2018-Jan-10 08:44N 40°48' E 014°19'1 3.7
2018-Jan-10 08:30N 40°49' E 014°18'  
2018-Jan-02 21:09N 38°58' E 009°36'313.9
2018-Jan-02 20:58N 38°57' E 009°33'613.8
2018-Jan-02 20:30N 38°56' E 009°25'714.2
2018-Jan-02 20:00N 38°54' E 009°16'714.6
2018-Jan-02 19:30N 38°52' E 009°07'714.5
2018-Jan-02 19:00N 38°50' E 008°58'714.4
2018-Jan-02 18:30N 38°48' E 008°49'714.2
2018-Jan-02 18:00N 38°45' E 008°41'  
Track history (hours):
 
Tides and Currents Weather Stations Pressure Air Temp Water Temp Dewpoint Dewpoint Depression Visibility Wind Speed Wind Dir Waves Ship Positions

Berga II

Last reported at 2018-Jan-10 11:30 UTC. Time now 2018-Jan-18 19:50 UTC.
Position N 40°38' E 014°01'.
Warning: this ship's position is 8 days out of date.

Length 174 m; draft 7.8 m.

Type: Ship (hazmat cat B). MMSI: 605076051.

Date/timePositionNaut miles runAvg speedWind from/ knotsBaromVisibWave heightAir tempDewpointWater temp
2018-Jan-10 11:30N 40°38' E 014°01'815.5
2018-Jan-10 11:00N 40°42' E 014°09'714.2
2018-Jan-10 10:30N 40°46' E 014°16'3 4.1
2018-Jan-10 09:51N 40°48' E 014°19'0 0.1
2018-Jan-10 08:44N 40°48' E 014°19'1 3.7
2018-Jan-10 08:30N 40°49' E 014°18'  
2018-Jan-02 21:09N 38°58' E 009°36'313.9
2018-Jan-02 20:58N 38°57' E 009°33'613.8
2018-Jan-02 20:30N 38°56' E 009°25'714.2
2018-Jan-02 20:00N 38°54' E 009°16'714.6
2018-Jan-02 19:30N 38°52' E 009°07'714.5
2018-Jan-02 19:00N 38°50' E 008°58'714.4
2018-Jan-02 18:30N 38°48' E 008°49'714.2
2018-Jan-02 18:00N 38°45' E 008°41'  

Dump ship's entire track history